Change the Weather History Date:

Sunday, December 29, 2013

  Actual Average Record
Temperature  
Mean Temperature 2 °F -  
Max Temperature 19 °F 23 °F 53 °F (1999)
Min Temperature -14 °F 6 °F -15 °F (1981)
Degree Days  
Heating Degree Days 62    
Moisture  
Dew Point -9 °F    
Average Humidity 71    
Maximum Humidity 93    
Minimum Humidity 55    
Precipitation  
Precipitation 0.00 in - - ()
Sea Level Pressure  
Sea Level Pressure 30.21 in    
Wind  
Wind Speed 16 mph (NW)    
Max Wind Speed 23 mph    
Max Gust Speed 30 mph    
Visibility 10 miles    
Events      
Averages and records for this station are not official NWS values.
T = Trace of Precipitation, MM = Missing Value Source: NWS Daily Summary

Daily Weather History Graph

Daily Weather History Graph

Search for Another Location

Airport or City:

Trip Planner

Search our weather history database for the weather conditions in past years. The results will help you decide how hot, cold, wet, or windy it might be!

Date:

Astronomy

Dec. 29, 2013 Rise Set
Actual Time 7:49 AM CST 4:40 PM CST
Civil Twilight 7:16 AM CST 5:14 PM CST
Nautical Twilight 6:39 AM CST 5:51 PM CST
Astronomical Twilight 6:03 AM CST 6:26 PM CST
Moon 4:30 AM CST (12/29) 2:22 PM CST (12/29)
Length of Visible Light 9h 58m
Length of Day
8h 51m
Waning Crescent, 11% of the Moon is Illuminated
Dec 29
Waning Crescent
Jan 1
New
Jan 7
First Quarter
Jan 15
Full
Jan 23
Last Quarter

Hourly Weather History & Observations

Time (CST) Temp. Windchill Dew Point Humidity Pressure Visibility Wind Dir Wind Speed Gust Speed Precip Events Conditions
12:06 AM 19.4 °F 2.8 °F 17.6 °F 93% 29.96 in 5.0 mi NNW 21.9 mph 26.5 mph N/A   Overcast
12:26 AM 17.6 °F 1.7 °F 15.8 °F 93% 29.98 in 10.0 mi NNW 18.4 mph 26.5 mph N/A   Overcast
12:45 AM 15.8 °F -1.5 °F 12.2 °F 86% 29.99 in 10.0 mi NNW 20.7 mph - N/A   Overcast
1:06 AM 15.8 °F -1.1 °F 10.4 °F 79% 30.01 in 10.0 mi NNW 19.6 mph 29.9 mph N/A   Overcast
1:26 AM 14.0 °F -3.4 °F 10.4 °F 86% 30.03 in 10.0 mi NNW 19.6 mph 26.5 mph N/A   Overcast
1:45 AM 12.2 °F -4.8 °F 10.4 °F 92% 30.05 in 10.0 mi NNW 17.3 mph 24.2 mph N/A   Overcast
2:06 AM 12.2 °F -5.8 °F 8.6 °F 85% 30.06 in 10.0 mi NNW 19.6 mph 27.6 mph N/A   Overcast
2:25 AM 12.2 °F -5.8 °F 8.6 °F 85% 30.07 in 10.0 mi NNW 19.6 mph 27.6 mph N/A   Overcast
2:46 AM 10.4 °F -8.6 °F 6.8 °F 85% 30.07 in 10.0 mi NNW 20.7 mph 25.3 mph N/A   Overcast
3:06 AM 10.4 °F -9.5 °F 6.8 °F 85% 30.07 in 10.0 mi NNW 23.0 mph 26.5 mph N/A   Overcast
3:25 AM 10.4 °F -8.6 °F 5.0 °F 79% 30.08 in 10.0 mi NNW 20.7 mph 26.5 mph N/A   Overcast
3:46 AM 8.6 °F -11.0 °F 3.2 °F 79% 30.09 in 10.0 mi NNW 20.7 mph 24.2 mph N/A   Overcast
4:06 AM 8.6 °F -11.0 °F 3.2 °F 79% 30.10 in 10.0 mi NNW 20.7 mph 27.6 mph N/A   Overcast
4:25 AM 8.6 °F -9.5 °F 1.4 °F 73% 30.11 in 10.0 mi NNW 17.3 mph 25.3 mph N/A   Overcast
4:46 AM 6.8 °F -12.9 °F 1.4 °F 79% 30.12 in 10.0 mi NNW 19.6 mph 26.5 mph N/A   Overcast
5:06 AM 6.8 °F -13.4 °F 1.4 °F 79% 30.13 in 10.0 mi NNW 20.7 mph 25.3 mph N/A   Overcast
5:25 AM 5.0 °F -15.7 °F 1.4 °F 85% 30.15 in 10.0 mi NNW 20.7 mph 27.6 mph N/A   Overcast
5:46 AM 5.0 °F -15.7 °F -0.4 °F 78% 30.16 in 10.0 mi NNW 20.7 mph 29.9 mph N/A   Overcast
6:06 AM 3.2 °F -18.6 °F -0.4 °F 85% 30.17 in 10.0 mi NW 21.9 mph 26.5 mph N/A   Overcast
6:25 AM 3.2 °F -17.1 °F -2.2 °F 78% 30.19 in 10.0 mi NNW 18.4 mph 24.2 mph N/A   Overcast
6:46 AM 1.4 °F -18.8 °F -2.2 °F 85% 30.20 in 10.0 mi NW 17.3 mph - N/A   Overcast
7:05 AM 1.4 °F -17.6 °F -4.0 °F 78% 30.22 in 10.0 mi NW 15.0 mph 20.7 mph N/A   Overcast
7:25 AM -0.4 °F -21.7 °F -5.8 °F 78% 30.23 in 10.0 mi NW 18.4 mph 23.0 mph N/A   Overcast
7:46 AM -2.2 °F -21.5 °F -7.6 °F 78% 30.23 in 10.0 mi NW 13.8 mph 18.4 mph N/A   Mostly Cloudy
8:05 AM -2.2 °F -20.7 °F -7.6 °F 78% 30.24 in 10.0 mi NW 12.7 mph - N/A   Scattered Clouds
8:25 AM -2.2 °F -22.2 °F -9.4 °F 71% 30.24 in 10.0 mi NW 15.0 mph - N/A   Clear
8:46 AM -2.2 °F -22.2 °F -9.4 °F 71% 30.25 in 10.0 mi NW 15.0 mph - N/A   Clear
9:05 AM -2.2 °F -21.5 °F -9.4 °F 71% 30.25 in 10.0 mi NW 13.8 mph - N/A   Clear
9:26 AM -4.0 °F -25.2 °F -9.4 °F 78% 30.26 in 10.0 mi NNW 16.1 mph - N/A   Clear
9:46 AM -4.0 °F -25.8 °F -11.2 °F 71% 30.26 in 10.0 mi NW 17.3 mph - N/A   Clear
10:05 AM -4.0 °F -25.8 °F -11.2 °F 71% 30.27 in 10.0 mi NW 17.3 mph 20.7 mph N/A   Clear
10:26 AM -4.0 °F -25.2 °F -11.2 °F 71% 30.28 in 10.0 mi NW 16.1 mph 20.7 mph N/A   Clear
10:46 AM -4.0 °F -25.2 °F -13.0 °F 65% 30.28 in 10.0 mi NW 16.1 mph - N/A   Clear
11:05 AM -4.0 °F -23.7 °F -14.8 °F 60% 30.28 in 10.0 mi NW 13.8 mph - N/A   Clear
11:26 AM -2.2 °F -21.5 °F -13.0 °F 60% 30.28 in 10.0 mi NNW 13.8 mph 18.4 mph N/A   Scattered Clouds
11:45 AM -2.2 °F -20.7 °F -13.0 °F 60% 30.27 in 10.0 mi NNW 12.7 mph - N/A   Overcast
12:05 PM -2.2 °F -21.5 °F -14.8 °F 55% 30.27 in 10.0 mi NW 13.8 mph - N/A   Overcast
12:26 PM -2.2 °F -21.5 °F -14.8 °F 55% 30.26 in 10.0 mi NW 13.8 mph - N/A   Mostly Cloudy
12:45 PM -2.2 °F -21.5 °F -14.8 °F 55% 30.26 in 10.0 mi NNW 13.8 mph 18.4 mph N/A   Scattered Clouds
1:05 PM -2.2 °F -22.2 °F -14.8 °F 55% 30.26 in 10.0 mi NW 15.0 mph - N/A   Clear
1:26 PM -2.2 °F -21.5 °F -14.8 °F 55% 30.26 in 10.0 mi WNW 13.8 mph - N/A   Clear
1:45 PM -2.2 °F -21.5 °F -14.8 °F 55% 30.25 in 10.0 mi WNW 13.8 mph - N/A   Clear
2:05 PM -2.2 °F -22.2 °F -14.8 °F 55% 30.24 in 10.0 mi NW 15.0 mph - N/A   Clear
2:26 PM -2.2 °F -21.5 °F -14.8 °F 55% 30.25 in 10.0 mi WNW 13.8 mph - N/A   Clear
2:45 PM -4.0 °F -23.7 °F -14.8 °F 60% 30.25 in 10.0 mi WNW 13.8 mph 18.4 mph N/A   Clear
3:05 PM -4.0 °F -23.7 °F -14.8 °F 60% 30.26 in 10.0 mi NW 13.8 mph - N/A   Clear
3:26 PM -4.0 °F -21.2 °F -16.6 °F 55% 30.26 in 10.0 mi NW 10.4 mph - N/A   Clear
3:45 PM -5.8 °F -26.0 °F -16.6 °F 60% 30.26 in 10.0 mi WNW 13.8 mph - N/A   Clear
4:06 PM -5.8 °F -24.4 °F -16.6 °F 60% 30.27 in 10.0 mi West 11.5 mph - N/A   Clear
4:26 PM -7.6 °F -28.3 °F -16.6 °F 65% 30.27 in 10.0 mi West 13.8 mph - N/A   Clear
4:45 PM -7.6 °F -26.6 °F -18.4 °F 59% 30.27 in 10.0 mi West 11.5 mph - N/A   Clear
5:06 PM -7.6 °F -23.4 °F -18.4 °F 59% 30.27 in 10.0 mi West 8.1 mph - N/A   Clear
5:26 PM -9.4 °F -26.8 °F -18.4 °F 65% 30.26 in 10.0 mi West 9.2 mph - N/A   Clear
5:45 PM -9.4 °F -22.7 °F -18.4 °F 65% 30.26 in 10.0 mi West 5.8 mph - N/A   Clear
6:06 PM -11.2 °F -26.4 °F -18.4 °F 70% 30.26 in 10.0 mi West 6.9 mph - N/A   Clear
6:26 PM -11.2 °F -27.8 °F -18.4 °F 70% 30.26 in 10.0 mi West 8.1 mph - N/A   Clear
6:45 PM -9.4 °F -26.8 °F -18.4 °F 65% 30.26 in 10.0 mi West 9.2 mph - N/A   Clear
7:06 PM -9.4 °F -25.6 °F -18.4 °F 65% 30.27 in 10.0 mi West 8.1 mph - N/A   Clear
7:25 PM -11.2 °F -27.8 °F -18.4 °F 70% 30.27 in 10.0 mi WNW 8.1 mph - N/A   Clear
7:45 PM -11.2 °F -26.4 °F -20.2 °F 64% 30.27 in 10.0 mi West 6.9 mph - N/A   Clear
8:06 PM -13.0 °F -27.0 °F -20.2 °F 70% 30.27 in 10.0 mi West 5.8 mph - N/A   Clear
8:25 PM -11.2 °F -24.8 °F -20.2 °F 64% 30.27 in 10.0 mi West 5.8 mph - N/A   Clear
8:45 PM -13.0 °F -22.7 °F -20.2 °F 70% 30.27 in 10.0 mi West 3.5 mph - N/A   Clear
9:06 PM -13.0 °F - -20.2 °F 70% 30.27 in 10.0 mi Calm Calm - N/A   Clear
9:25 PM -13.0 °F -22.7 °F -20.2 °F 70% 30.27 in 10.0 mi West 3.5 mph - N/A   Clear
9:46 PM -13.0 °F - -20.2 °F 70% 30.27 in 10.0 mi Calm Calm - N/A   Clear
10:06 PM -14.8 °F -24.8 °F -20.2 °F 77% 30.27 in 10.0 mi West 3.5 mph - N/A   Clear
10:25 PM -14.8 °F - -20.2 °F 77% 30.27 in 10.0 mi Calm Calm - N/A   Clear
10:45 PM -14.8 °F -24.8 °F -20.2 °F 77% 30.27 in 10.0 mi WSW 3.5 mph - N/A   Clear
11:06 PM -14.8 °F - -20.2 °F 77% 30.27 in 10.0 mi Calm Calm - N/A   Clear
11:25 PM -14.8 °F -24.8 °F -20.2 °F 77% 30.28 in 10.0 mi SW 3.5 mph - N/A   Clear
11:46 PM -14.8 °F - -20.2 °F 77% 30.28 in 10.0 mi Calm Calm - N/A   Clear